Time;durP1;ratioP1;P1;durP2;ratioP2;P2;SDS_P1;SDS_P2;PMS_P1;PMS_P2;Temp;Humidity;BMP_temperature;BMP_pressure;BME280_temperature;BME280_humidity;BME280_pressure;Samples;Min_cycle;Max_cycle;Signal;HPM_P1;HPM_P2
2022/09/17 00:00:21;;;;;;;2.05;1.00;;;9.80;99.90;;;;;;5092970;28;20028;-69
2022/09/17 00:02:54;;;;;;;1.17;0.65;;;9.90;99.90;;;;;;5092274;28;20036;-70
2022/09/17 00:05:22;;;;;;;0.70;0.50;;;9.80;99.90;;;;;;5096139;28;20035;-69
2022/09/17 00:07:48;;;;;;;0.70;0.70;;;9.90;99.90;;;;;;5096499;28;20493;-69
2022/09/17 00:10:13;;;;;;;2.97;0.88;;;9.90;99.90;;;;;;5092259;28;20028;-70
2022/09/17 00:12:39;;;;;;;0.70;0.60;;;9.90;99.90;;;;;;5078900;28;20039;-69
2022/09/17 00:15:05;;;;;;;1.88;0.52;;;9.80;99.90;;;;;;5092401;28;20349;-69
2022/09/17 00:17:31;;;;;;;0.80;0.50;;;9.80;99.90;;;;;;5093963;28;20054;-70
2022/09/17 00:19:56;;;;;;;1.33;0.57;;;9.80;99.90;;;;;;5098083;28;20452;-70
2022/09/17 00:22:22;;;;;;;1.67;0.82;;;9.70;99.90;;;;;;5094019;28;20028;-70
2022/09/17 00:24:47;;;;;;;1.42;0.70;;;9.80;99.90;;;;;;5110379;28;20055;-71
2022/09/17 00:27:13;;;;;;;2.92;0.73;;;9.80;99.90;;;;;;5101767;28;20100;-71
2022/09/17 00:29:39;;;;;;;3.67;1.20;;;9.80;99.90;;;;;;5091929;28;20380;-71
2022/09/17 00:32:04;;;;;;;1.80;0.80;;;9.80;99.90;;;;;;5111756;28;20028;-71
2022/09/17 00:34:30;;;;;;;5.85;0.95;;;9.80;99.90;;;;;;5111415;28;20464;-70
2022/09/17 00:36:55;;;;;;;3.60;0.90;;;9.80;99.90;;;;;;5094978;28;20215;-70
2022/09/17 00:39:21;;;;;;;1.95;0.98;;;9.90;99.90;;;;;;5112048;28;20023;-70
2022/09/17 00:41:46;;;;;;;2.80;0.68;;;9.90;99.90;;;;;;5095182;28;20027;-70
2022/09/17 00:44:37;;;;;;;1.40;0.57;;;9.90;99.90;;;;;;5071530;28;20469;-70
2022/09/17 00:47:03;;;;;;;3.03;0.88;;;9.90;99.90;;;;;;5075637;28;20100;-71
2022/09/17 00:49:31;;;;;;;2.28;0.90;;;9.90;99.90;;;;;;5090404;28;20527;-71
2022/09/17 00:52:06;;;;;;;2.53;0.82;;;9.90;99.90;;;;;;5090011;28;20496;-71
2022/09/17 00:54:33;;;;;;;1.42;0.80;;;9.90;99.90;;;;;;5082697;28;20036;-71
2022/09/17 00:56:59;;;;;;;3.85;0.85;;;10.00;99.90;;;;;;5082139;28;20029;-71
2022/09/17 00:59:25;;;;;;;2.67;0.70;;;9.90;99.90;;;;;;5069532;28;20054;-71
2022/09/17 01:01:51;;;;;;;1.05;0.73;;;9.90;99.90;;;;;;5076941;28;20020;-71
2022/09/17 01:04:19;;;;;;;2.45;0.93;;;9.90;99.90;;;;;;5091096;28;20110;-71
2022/09/17 01:07:14;;;;;;;2.00;0.70;;;9.80;99.90;;;;;;5066405;28;20021;-71
2022/09/17 01:10:19;;;;;;;2.45;0.80;;;9.80;99.90;;;;;;5070945;28;20024;-71
2022/09/17 01:13:11;;;;;;;2.20;1.00;;;9.70;99.90;;;;;;4981745;28;20030;-71
2022/09/17 01:15:54;;;;;;;2.33;1.00;;;9.60;99.90;;;;;;4987223;28;20519;-71
2022/09/17 01:18:35;;;;;;;1.20;1.10;;;9.60;99.90;;;;;;4989199;28;20049;-72
2022/09/17 01:21:20;;;;;;;3.20;0.93;;;9.60;99.90;;;;;;4995054;28;20456;-71
2022/09/17 01:24:03;;;;;;;4.07;1.67;;;9.50;99.90;;;;;;5004538;28;20042;-71
2022/09/17 01:26:57;;;;;;;2.50;0.65;;;9.40;99.90;;;;;;4989479;28;20559;-72
2022/09/17 01:29:41;;;;;;;2.67;1.10;;;9.40;99.90;;;;;;4990221;28;20027;-70
2022/09/17 01:32:19;;;;;;;0.95;0.70;;;9.30;99.90;;;;;;4989519;28;20048;-70
2022/09/17 01:34:57;;;;;;;3.08;1.08;;;9.30;99.90;;;;;;4989324;28;20451;-72
2022/09/17 01:37:23;;;;;;;1.27;0.95;;;9.30;99.90;;;;;;4989799;28;20046;-71
2022/09/17 01:40:04;;;;;;;4.25;1.30;;;9.20;99.90;;;;;;4988980;28;20571;-71
2022/09/17 01:42:47;;;;;;;1.38;0.90;;;9.30;99.90;;;;;;4985239;28;20034;-73
2022/09/17 01:45:21;;;;;;;4.07;1.10;;;9.30;99.90;;;;;;5088929;28;20052;-71
2022/09/17 01:47:53;;;;;;;1.98;1.10;;;9.30;99.90;;;;;;5090033;28;20109;-72
2022/09/17 01:50:26;;;;;;;4.78;1.00;;;9.30;99.90;;;;;;5083686;28;20496;-71
2022/09/17 01:52:55;;;;;;;3.28;1.13;;;9.30;99.90;;;;;;5077909;28;20058;-72
2022/09/17 01:55:23;;;;;;;2.33;1.20;;;9.40;99.90;;;;;;5064068;28;20036;-71
2022/09/17 01:58:03;;;;;;;3.15;0.98;;;9.40;99.90;;;;;;5081519;28;20031;-70
2022/09/17 02:00:30;;;;;;;2.17;1.13;;;;;;;;;;5090023;28;20035;-71
2022/09/17 02:03:04;;;;;;;3.80;1.27;;;;;;;;;;5082787;28;20082;-70
2022/09/17 02:05:49;;;;;;;1.40;0.85;;;;;;;;;;5087256;28;20067;-72
2022/09/17 02:08:18;;;;;;;4.40;1.17;;;;;;;;;;5069834;28;20016;-71
2022/09/17 02:10:46;;;;;;;2.25;1.10;;;;;;;;;;5077793;28;20024;-70
2022/09/17 02:13:16;;;;;;;1.40;0.82;;;;;;;;;;5089512;28;20028;-71
2022/09/17 02:15:45;;;;;;;1.70;1.20;;;;;;;;;;5091092;28;20031;-72
2022/09/17 02:18:17;;;;;;;2.33;0.88;;;;;;;;;;5090696;28;20020;-71
2022/09/17 02:20:48;;;;;;;1.92;1.02;;;;;;;;;;5075162;28;20036;-71
2022/09/17 02:23:18;;;;;;;3.05;1.20;;;;;;;;;;5072357;28;20029;-72
2022/09/17 02:25:44;;;;;;;;;;;;;;;;;;5071682;28;20031;-72
2022/09/17 02:28:13;;;;;;;5.18;1.00;;;;;;;;;;5090823;28;20003;-72
2022/09/17 02:30:39;;;;;;;4.22;1.55;;;;;;;;;;5068358;28;20096;-72
2022/09/17 02:33:07;;;;;;;6.43;1.48;;;;;;;;;;5074438;28;20454;-72
2022/09/17 02:35:33;;;;;;;4.97;1.17;;;;;;;;;;5083304;28;20071;-73
2022/09/17 02:38:00;;;;;;;3.88;0.98;;;;;;;;;;5074350;28;20028;-71
2022/09/17 02:40:29;;;;;;;1.65;0.90;;;;;;;;;;5092665;28;20385;-71
2022/09/17 02:43:13;;;;;;;3.95;1.40;;;;;;;;;;5064305;28;20040;-71
2022/09/17 02:45:54;;;;;;;3.50;1.00;;;;;;;;;;5079011;27;20074;-72
2022/09/17 02:48:27;;;;;;;2.90;1.10;;;;;;;;;;5084728;28;20048;-72
2022/09/17 02:51:04;;;;;;;3.97;0.90;;;;;;;;;;5059811;28;20094;-71
2022/09/17 02:53:35;;;;;;;6.07;1.23;;;;;;;;;;5073985;28;20048;-71
2022/09/17 02:56:01;;;;;;;;;;;;;;;;;;5085510;28;20469;-71
2022/09/17 02:58:37;;;;;;;3.28;1.00;;;;;;;;;;5076860;28;19908;-71
2022/09/17 03:01:07;;;;;;;4.93;1.10;;;;;;;;;;5079650;28;20012;-72
2022/09/17 03:03:40;;;;;;;4.03;1.10;;;;;;;;;;5075494;28;20094;-74
2022/09/17 03:06:06;;;;;;;3.95;0.90;;;;;;;;;;5065697;28;20421;-72
2022/09/17 03:08:36;;;;;;;4.38;1.10;;;;;;;;;;5075310;28;20029;-73
2022/09/17 03:11:04;;;;;;;6.35;1.20;;;;;;;;;;5076995;28;20021;-72
2022/09/17 03:13:30;;;;;;;3.88;1.38;;;;;;;;;;5093406;28;20040;-72
2022/09/17 03:15:56;;;;;;;7.68;1.13;;;;;;;;;;5069831;28;20128;-71
2022/09/17 03:18:23;;;;;;;3.10;0.93;;;;;;;;;;5074825;28;20475;-72
2022/09/17 03:20:49;;;;;;;3.67;1.02;;;;;;;;;;5073324;28;20492;-71
2022/09/17 03:23:15;;;;;;;6.22;1.23;;;;;;;;;;5074346;28;20417;-71
2022/09/17 03:25:41;;;;;;;2.40;0.77;;;;;;;;;;5083893;28;20028;-72
2022/09/17 03:28:07;;;;;;;7.07;0.95;;;;;;;;;;5091815;28;20144;-72
2022/09/17 03:30:33;;;;;;;2.95;0.82;;;;;;;;;;5093216;28;20073;-70
2022/09/17 03:32:59;;;;;;;6.22;1.35;;;;;;;;;;5072026;28;20079;-71
2022/09/17 03:35:25;;;;;;;4.38;1.20;;;;;;;;;;5080712;28;20016;-71
2022/09/17 03:37:51;;;;;;;4.20;1.10;;;;;;;;;;5072497;28;20032;-72
2022/09/17 03:40:17;;;;;;;5.97;1.00;;;;;;;;;;5055587;28;20398;-71
2022/09/17 03:42:43;;;;;;;6.75;1.58;;;;;;;;;;5072780;28;20025;-71
2022/09/17 03:45:09;;;;;;;3.03;0.98;;;;;;;;;;5090504;28;20052;-71
2022/09/17 03:47:36;;;;;;;3.40;1.13;;;;;;;;;;5082784;28;20032;-75
2022/09/17 03:50:02;;;;;;;1.77;0.65;;;;;;;;;;5067461;28;20021;-71
2022/09/17 03:52:28;;;;;;;3.72;1.05;;;;;;;;;;5072999;28;20024;-72
2022/09/17 03:54:54;;;;;;;3.25;0.95;;;;;;;;;;5064715;28;20382;-71
2022/09/17 03:57:21;;;;;;;2.63;1.08;;;;;;;;;;5074142;28;20023;-73
2022/09/17 03:59:47;;;;;;;5.05;1.20;;;;;;;;;;5072204;28;20029;-72
2022/09/17 04:02:13;;;;;;;3.88;0.93;;;;;;;;;;5091163;28;20020;-72
2022/09/17 04:04:39;;;;;;;4.15;1.42;;;;;;;;;;5073121;28;20020;-76
2022/09/17 04:07:05;;;;;;;4.40;1.10;;;;;;;;;;5073000;28;20496;-73
2022/09/17 04:09:31;;;;;;;7.57;1.13;;;9.10;99.90;;;;;;5072928;28;20039;-71
2022/09/17 04:11:57;;;;;;;6.43;1.10;;;9.10;99.90;;;;;;5057645;28;20106;-73
2022/09/17 04:14:22;;;;;;;7.72;1.27;;;9.00;99.90;;;;;;5092429;28;20053;-72
2022/09/17 04:16:48;;;;;;;6.07;2.00;;;8.90;99.90;;;;;;5090584;28;20385;-72
2022/09/17 04:19:14;;;;;;;6.57;1.33;;;8.90;99.90;;;;;;5091362;28;20024;-71
2022/09/17 04:21:39;;;;;;;6.43;0.90;;;8.90;99.90;;;;;;5071284;28;20454;-77
2022/09/17 04:24:05;;;;;;;4.68;1.10;;;8.80;99.90;;;;;;5072457;28;20031;-74
2022/09/17 04:26:30;;;;;;;8.27;1.25;;;8.80;99.90;;;;;;5073873;28;20521;-72
2022/09/17 04:28:56;;;;;;;2.85;0.80;;;8.80;99.90;;;;;;5071886;28;20029;-73
2022/09/17 04:31:23;;;;;;;4.13;1.08;;;8.90;99.90;;;;;;5078402;28;20051;-71
2022/09/17 04:33:50;;;;;;;3.30;1.25;;;8.80;99.90;;;;;;5082637;28;20384;-72
2022/09/17 04:36:15;;;;;;;7.00;1.10;;;8.80;99.90;;;;;;5082716;28;20484;-72
2022/09/17 04:38:41;;;;;;;5.38;1.00;;;8.80;99.90;;;;;;5072243;28;20025;-75
2022/09/17 04:41:07;;;;;;;4.43;1.00;;;8.80;99.90;;;;;;5080708;28;20047;-74
2022/09/17 04:43:33;;;;;;;6.10;1.38;;;8.80;99.90;;;;;;5090819;28;20066;-73
2022/09/17 04:45:59;;;;;;;4.78;1.17;;;8.90;99.90;;;;;;5099499;28;20062;-72
2022/09/17 04:48:24;;;;;;;6.20;1.27;;;8.90;99.90;;;;;;5112985;28;20388;-72
2022/09/17 04:50:50;;;;;;;6.90;1.45;;;8.80;99.90;;;;;;5101958;28;20384;-72
2022/09/17 04:53:17;;;;;;;7.43;1.08;;;9.00;99.90;;;;;;5101698;28;20038;-73
2022/09/17 04:55:46;;;;;;;5.30;1.35;;;9.00;99.90;;;;;;5101063;28;20164;-74
2022/09/17 04:58:11;;;;;;;4.18;1.15;;;9.00;99.90;;;;;;5092212;28;20362;-73
2022/09/17 05:00:37;;;;;;;5.35;1.13;;;9.00;99.90;;;;;;5097485;28;20024;-74
2022/09/17 05:03:02;;;;;;;6.53;1.27;;;9.10;99.90;;;;;;5110188;28;20070;-73
2022/09/17 05:05:28;;;;;;;5.13;1.40;;;9.00;99.90;;;;;;5104656;28;20035;-73
2022/09/17 05:07:54;;;;;;;9.55;1.30;;;9.10;99.90;;;;;;5096276;28;20055;-72
2022/09/17 05:10:21;;;;;;;4.85;1.27;;;9.10;99.90;;;;;;5103575;28;20377;-72
2022/09/17 05:12:51;;;;;;;4.43;0.98;;;9.10;99.90;;;;;;5110023;28;20024;-73
2022/09/17 05:15:17;;;;;;;5.80;1.30;;;9.10;99.90;;;;;;5086138;28;20544;-73
2022/09/17 05:17:43;;;;;;;10.90;1.55;;;9.20;99.90;;;;;;5097774;28;20047;-74
2022/09/17 05:20:12;;;;;;;6.50;1.50;;;9.20;99.90;;;;;;5096276;28;20059;-72
2022/09/17 05:22:50;;;;;;;6.28;1.40;;;9.30;99.90;;;;;;5091248;28;20473;-73
2022/09/17 05:25:17;;;;;;;9.18;1.27;;;9.30;99.90;;;;;;5091737;28;20120;-73
2022/09/17 05:27:42;;;;;;;5.78;1.52;;;9.30;99.90;;;;;;5091424;28;20047;-75
2022/09/17 05:30:10;;;;;;;4.40;1.52;;;9.30;99.90;;;;;;5096909;28;20024;-73
2022/09/17 05:32:36;;;;;;;8.45;1.67;;;9.30;99.90;;;;;;5071757;28;20039;-74
2022/09/17 05:35:03;;;;;;;6.20;1.40;;;9.30;99.90;;;;;;5079494;28;20025;-73
2022/09/17 05:37:29;;;;;;;4.57;1.15;;;9.30;99.90;;;;;;5091271;28;20065;-74
2022/09/17 05:39:54;;;;;;;4.93;1.52;;;9.30;99.90;;;;;;5086726;28;20123;-74
2022/09/17 05:42:20;;;;;;;7.15;2.53;;;9.30;99.90;;;;;;5091425;28;20055;-73
2022/09/17 05:44:45;;;;;;;4.72;1.40;;;9.20;99.90;;;;;;5082181;28;20032;-73
2022/09/17 05:47:11;;;;;;;5.45;1.55;;;9.20;99.90;;;;;;5092045;28;20026;-74
2022/09/17 05:49:37;;;;;;;13.68;1.63;;;9.20;99.90;;;;;;5080527;28;20028;-73
2022/09/17 05:52:03;;;;;;;8.05;1.77;;;9.10;99.90;;;;;;5084721;28;20035;-74
2022/09/17 05:54:29;;;;;;;9.27;2.50;;;9.10;99.90;;;;;;5105080;28;20464;-73
2022/09/17 05:56:54;;;;;;;8.32;1.60;;;9.20;99.90;;;;;;5089108;28;20478;-73
2022/09/17 05:59:20;;;;;;;7.80;1.75;;;9.20;99.90;;;;;;5094677;28;20161;-73
2022/09/17 06:01:46;;;;;;;7.85;1.48;;;9.40;99.90;;;;;;5088026;28;20085;-73
2022/09/17 06:04:12;;;;;;;6.82;1.63;;;9.50;99.90;;;;;;5082838;28;20392;-75
2022/09/17 06:06:40;;;;;;;8.40;1.60;;;9.60;99.90;;;;;;5082826;28;20032;-73
2022/09/17 06:09:06;;;;;;;8.27;1.73;;;9.60;99.90;;;;;;5091508;28;20381;-72
2022/09/17 06:11:32;;;;;;;8.73;1.88;;;9.70;99.90;;;;;;5089904;28;20436;-73
2022/09/17 06:13:57;;;;;;;5.07;1.27;;;9.80;99.90;;;;;;5093367;28;20118;-74
2022/09/17 06:16:24;;;;;;;7.00;1.35;;;9.90;99.90;;;;;;5083181;28;20386;-73
2022/09/17 06:18:51;;;;;;;7.78;1.52;;;10.00;99.90;;;;;;5080744;28;20056;-75
2022/09/17 06:21:18;;;;;;;5.88;1.38;;;10.10;99.90;;;;;;5077926;28;20068;-75
2022/09/17 06:23:44;;;;;;;7.55;1.50;;;10.10;99.90;;;;;;5089700;28;20111;-73
2022/09/17 06:26:11;;;;;;;5.95;1.80;;;10.10;99.90;;;;;;5079501;28;20461;-73
2022/09/17 06:28:37;;;;;;;4.38;1.20;;;10.20;99.90;;;;;;5080757;28;20461;-73
2022/09/17 06:31:04;;;;;;;7.18;1.38;;;10.30;99.90;;;;;;5077990;28;20027;-75
2022/09/17 06:33:31;;;;;;;10.43;1.80;;;10.30;99.90;;;;;;5079266;28;20557;-74
2022/09/17 06:36:02;;;;;;;7.15;1.30;;;10.30;99.90;;;;;;5073099;28;20033;-74
2022/09/17 06:38:28;;;;;;;3.70;1.25;;;10.30;99.90;;;;;;5077170;28;20462;-74
2022/09/17 06:40:54;;;;;;;3.92;1.40;;;10.30;99.90;;;;;;5082326;28;20370;-72
2022/09/17 06:43:21;;;;;;;10.00;1.40;;;10.40;99.90;;;;;;5091100;28;20447;-72
2022/09/17 06:45:53;;;;;;;6.00;1.13;;;10.40;99.90;;;;;;5079501;28;20486;-74
2022/09/17 06:48:20;;;;;;;7.68;1.63;;;10.40;99.90;;;;;;5098804;28;20035;-74
2022/09/17 06:50:46;;;;;;;7.47;1.45;;;10.50;99.90;;;;;;5094066;28;20057;-74
2022/09/17 06:53:11;;;;;;;4.55;2.08;;;10.60;99.90;;;;;;5099907;28;20131;-74
2022/09/17 06:55:37;;;;;;;5.03;1.33;;;10.70;99.90;;;;;;5096292;28;20039;-74
2022/09/17 06:58:03;;;;;;;8.55;1.35;;;10.70;99.90;;;;;;5082307;28;20985;-76
2022/09/17 07:00:29;;;;;;;6.88;1.45;;;10.70;99.90;;;;;;5093824;28;20045;-73
2022/09/17 07:02:59;;;;;;;6.60;1.58;;;10.70;99.90;;;;;;5108356;28;20117;-73
2022/09/17 07:05:26;;;;;;;5.53;1.70;;;10.80;99.90;;;;;;5105357;28;20031;-73
2022/09/17 07:07:52;;;;;;;4.70;1.52;;;10.80;99.90;;;;;;5093321;28;20129;-73
2022/09/17 07:10:18;;;;;;;3.42;1.30;;;10.70;99.90;;;;;;5087275;28;20074;-73
2022/09/17 07:12:44;;;;;;;5.97;1.20;;;10.70;99.90;;;;;;5106673;28;20468;-73
2022/09/17 07:15:11;;;;;;;4.50;1.20;;;10.70;99.90;;;;;;5102418;28;20025;-73
2022/09/17 07:17:40;;;;;;;10.65;1.75;;;10.60;99.90;;;;;;5094158;28;20078;-72
2022/09/17 07:20:06;;;;;;;6.43;1.35;;;10.60;99.90;;;;;;5088693;28;20115;-74
2022/09/17 07:22:32;;;;;;;2.97;1.30;;;10.40;99.90;;;;;;5092998;28;20469;-73
2022/09/17 07:24:58;;;;;;;4.00;1.23;;;10.30;99.90;;;;;;5094019;28;20046;-73
2022/09/17 07:27:30;;;;;;;7.93;1.35;;;10.20;99.90;;;;;;5099267;28;20510;-74
2022/09/17 07:29:56;;;;;;;9.85;1.33;;;10.10;99.90;;;;;;5087419;28;20500;-73
2022/09/17 07:32:22;;;;;;;3.75;1.45;;;10.00;99.90;;;;;;5093748;28;20107;-73
2022/09/17 07:34:48;;;;;;;4.38;1.40;;;9.70;99.90;;;;;;5090764;28;20662;-73
2022/09/17 07:37:15;;;;;;;3.53;1.80;;;9.60;99.90;;;;;;5106759;28;20167;-74
2022/09/17 07:39:41;;;;;;;8.40;2.08;;;9.60;99.90;;;;;;5093464;28;20509;-77
2022/09/17 07:42:07;;;;;;;6.22;2.17;;;9.50;99.90;;;;;;5092383;28;20112;-78
2022/09/17 07:44:33;;;;;;;8.02;1.80;;;9.50;99.90;;;;;;5094842;28;20036;-74
2022/09/17 07:46:59;;;;;;;7.47;2.00;;;9.40;99.90;;;;;;5087626;28;20063;-73
2022/09/17 07:49:25;;;;;;;3.75;2.17;;;9.40;99.90;;;;;;5093625;28;20035;-75
2022/09/17 07:51:51;;;;;;;3.58;1.80;;;9.40;99.90;;;;;;5090785;28;20381;-76
2022/09/17 07:54:16;;;;;;;5.93;1.80;;;9.40;99.90;;;;;;5092858;28;20149;-78
2022/09/17 07:56:42;;;;;;;8.52;2.28;;;9.20;99.90;;;;;;5085673;28;20031;-76
2022/09/17 07:59:08;;;;;;;5.13;1.92;;;9.20;99.90;;;;;;5092767;28;20023;-74
2022/09/17 08:01:35;;;;;;;4.03;2.03;;;9.20;99.90;;;;;;5090345;28;20149;-74
2022/09/17 08:04:02;;;;;;;5.82;2.05;;;9.20;99.90;;;;;;5089122;28;20048;-74
2022/09/17 08:06:27;;;;;;;5.40;1.45;;;9.20;99.90;;;;;;5086580;28;20051;-77
2022/09/17 08:08:58;;;;;;;3.53;1.80;;;9.30;99.90;;;;;;5095394;28;20016;-76
2022/09/17 08:11:26;;;;;;;6.78;1.60;;;9.30;99.90;;;;;;5091412;28;20035;-76
2022/09/17 08:13:53;;;;;;;7.13;1.92;;;9.40;99.90;;;;;;5090894;28;20036;-73
2022/09/17 08:16:20;;;;;;;4.78;1.60;;;9.50;99.90;;;;;;5079286;28;20038;-75
2022/09/17 08:18:47;;;;;;;3.70;1.95;;;9.50;99.90;;;;;;5092037;28;20136;-77
2022/09/17 08:21:17;;;;;;;6.10;1.67;;;9.60;99.90;;;;;;5095442;28;20038;-73
2022/09/17 08:23:43;;;;;;;;;;;9.70;99.90;;;;;;5088794;28;20028;-74
2022/09/17 08:26:14;;;;;;;5.53;1.73;;;9.70;99.90;;;;;;5086281;28;19904;-75
2022/09/17 08:28:46;;;;;;;7.35;1.92;;;9.70;99.90;;;;;;5086499;28;20028;-75
2022/09/17 08:31:13;;;;;;;9.00;2.28;;;9.90;99.90;;;;;;5084051;28;20032;-77
2022/09/17 08:33:40;;;;;;;4.70;2.03;;;10.00;99.90;;;;;;5088464;28;20120;-76
2022/09/17 08:36:09;;;;;;;6.43;2.28;;;10.00;99.90;;;;;;5078499;28;20125;-77
2022/09/17 08:38:38;;;;;;;8.05;2.08;;;10.10;99.90;;;;;;5103153;28;20059;-75
2022/09/17 08:41:10;;;;;;;5.55;1.90;;;10.20;99.90;;;;;;5096026;28;20115;-74
2022/09/17 08:43:46;;;;;;;7.07;2.20;;;10.30;99.90;;;;;;5111158;28;20385;-79
2022/09/17 08:46:11;;;;;;;9.50;2.63;;;10.50;99.90;;;;;;5084829;28;20049;-76
2022/09/17 08:48:44;;;;;;;5.10;1.88;;;10.70;99.90;;;;;;5072239;28;20032;-77
2022/09/17 08:51:31;;;;;;;9.35;2.30;;;10.90;99.90;;;;;;5062248;28;20112;-77
2022/09/17 08:54:19;;;;;;;5.28;2.15;;;10.90;99.90;;;;;;5061916;28;20039;-73
2022/09/17 08:56:50;;;;;;;15.85;2.17;;;11.10;99.90;;;;;;5070722;28;20488;-72
2022/09/17 08:59:18;;;;;;;5.35;1.70;;;11.10;99.90;;;;;;5083734;28;20477;-75
2022/09/17 09:01:59;;;;;;;16.10;2.00;;;11.10;99.90;;;;;;5082840;28;20150;-74
2022/09/17 09:04:40;;;;;;;11.02;2.30;;;11.30;99.90;;;;;;5071698;28;20113;-74
2022/09/17 09:07:09;;;;;;;12.80;1.88;;;11.50;99.90;;;;;;5064696;28;20032;-76
2022/09/17 09:09:45;;;;;;;9.20;1.75;;;11.60;99.90;;;;;;5068808;28;20103;-76
2022/09/17 09:12:34;;;;;;;9.15;1.90;;;11.80;99.90;;;;;;5075961;28;20021;-76
2022/09/17 09:15:16;;;;;;;13.98;2.00;;;11.80;99.90;;;;;;5074730;28;20037;-78
2022/09/17 09:17:45;;;;;;;9.18;2.17;;;12.00;99.90;;;;;;5081410;28;20087;-75
2022/09/17 09:20:19;;;;;;;9.00;2.10;;;12.00;99.90;;;;;;5066685;28;20484;-83
2022/09/17 09:22:49;;;;;;;12.23;2.30;;;12.10;99.90;;;;;;5072991;28;20119;-73
2022/09/17 09:25:16;;;;;;;15.98;2.30;;;12.00;99.90;;;;;;5075498;28;20017;-78
2022/09/17 09:28:08;;;;;;;10.98;2.67;;;12.10;99.90;;;;;;5070502;28;20044;-78
2022/09/17 09:31:13;;;;;;;10.07;2.10;;;12.10;99.90;;;;;;5047580;28;20064;-72
2022/09/17 09:33:42;;;;;;;10.23;2.17;;;12.20;99.90;;;;;;5074113;28;20028;-74
2022/09/17 09:36:14;;;;;;;7.77;1.70;;;12.20;99.90;;;;;;5070220;28;20556;-74
2022/09/17 09:38:49;;;;;;;11.68;2.53;;;12.30;99.90;;;;;;5079060;28;20262;-70
2022/09/17 09:41:53;;;;;;;11.40;2.30;;;12.40;99.90;;;;;;5062288;28;20120;-73
2022/09/17 09:44:19;;;;;;;11.70;2.17;;;12.30;99.90;;;;;;5069230;28;20098;-78
2022/09/17 09:47:05;;;;;;;9.85;2.20;;;12.50;99.90;;;;;;5086488;28;20047;-75
2022/09/17 09:49:49;;;;;;;8.65;1.92;;;12.60;99.90;;;;;;5086370;28;20039;-80
2022/09/17 09:52:36;;;;;;;12.35;2.20;;;12.70;99.90;;;;;;5090261;28;20052;-78
2022/09/17 09:55:05;;;;;;;11.40;1.88;;;12.90;99.90;;;;;;5068811;28;20103;-72
2022/09/17 09:57:36;;;;;;;10.13;2.03;;;13.00;99.90;;;;;;5060315;28;20033;-76
2022/09/17 10:00:25;;;;;;;5.85;1.70;;;12.90;99.90;;;;;;5065647;28;20033;-74
2022/09/17 10:03:13;;;;;;;10.57;2.42;;;12.80;99.90;;;;;;5063762;28;20111;-75
2022/09/17 10:05:50;;;;;;;8.55;1.70;;;12.80;99.90;;;;;;5057658;28;20481;-75
2022/09/17 10:08:16;;;;;;;10.30;1.95;;;12.70;99.90;;;;;;5071058;28;20024;-74
2022/09/17 10:11:03;;;;;;;7.85;1.60;;;12.70;99.90;;;;;;5067988;28;20381;-75
2022/09/17 10:13:31;;;;;;;7.97;1.92;;;12.70;99.90;;;;;;5081645;28;20186;-75
2022/09/17 10:16:28;;;;;;;8.00;2.05;;;12.90;99.90;;;;;;5060705;28;20103;-73
2022/09/17 10:19:02;;;;;;;9.07;2.22;;;13.10;99.90;;;;;;5083141;28;20039;-77
2022/09/17 10:21:34;;;;;;;6.70;2.17;;;13.10;99.90;;;;;;5069642;28;20078;-78
2022/09/17 10:24:01;;;;;;;7.72;1.80;;;13.20;99.90;;;;;;5092261;28;20063;-73
2022/09/17 10:26:34;;;;;;;9.13;2.33;;;13.30;99.90;;;;;;5093786;28;20031;-74
2022/09/17 10:29:05;;;;;;;4.55;1.42;;;13.50;99.90;;;;;;5094172;28;20036;-75
2022/09/17 10:31:46;;;;;;;9.40;1.77;;;13.60;99.90;;;;;;5079365;28;20465;-73
2022/09/17 10:34:26;;;;;;;10.20;1.90;;;13.90;99.90;;;;;;5069430;28;20051;-73
2022/09/17 10:36:52;;;;;;;6.28;1.67;;;14.10;99.90;;;;;;5074929;28;20032;-74
2022/09/17 10:39:36;;;;;;;11.00;1.77;;;14.30;99.90;;;;;;5080834;28;20423;-72
2022/09/17 10:42:02;;;;;;;3.47;1.15;;;14.40;99.90;;;;;;5068208;28;20028;-73
2022/09/17 10:44:33;;;;;;;10.82;1.90;;;14.20;99.90;;;;;;5080407;28;20036;-73
2022/09/17 10:47:18;;;;;;;9.07;1.95;;;14.10;99.90;;;;;;5075974;28;20036;-73
2022/09/17 10:49:58;;;;;;;7.10;1.30;;;14.20;99.90;;;;;;5062712;28;20040;-73
2022/09/17 10:52:26;;;;;;;6.63;1.63;;;14.30;99.90;;;;;;5065904;28;20075;-73
2022/09/17 10:55:16;;;;;;;4.35;1.60;;;14.40;99.90;;;;;;5091926;28;20035;-73
2022/09/17 10:58:06;;;;;;;6.68;1.33;;;14.40;99.90;;;;;;5083364;28;20052;-73
2022/09/17 11:00:43;;;;;;;6.88;1.40;;;14.50;99.90;;;;;;5065899;28;20039;-73
2022/09/17 11:03:27;;;;;;;8.30;1.42;;;14.70;99.90;;;;;;5073327;28;20025;-73
2022/09/17 11:06:30;;;;;;;5.03;1.27;;;15.00;99.90;;;;;;5073540;28;20025;-73
2022/09/17 11:09:10;;;;;;;6.07;1.73;;;15.70;99.90;;;;;;5090203;28;20024;-73
2022/09/17 11:11:52;;;;;;;3.22;1.08;;;15.80;99.90;;;;;;5103726;28;20088;-73
2022/09/17 11:14:23;;;;;;;10.82;1.70;;;15.70;99.90;;;;;;5090527;28;20043;-72
2022/09/17 11:17:05;;;;;;;6.72;1.55;;;15.70;99.90;;;;;;5101671;28;20039;-73
2022/09/17 11:19:44;;;;;;;3.85;1.10;;;15.90;99.90;;;;;;5078144;28;20029;-73
2022/09/17 11:22:31;;;;;;;4.50;1.30;;;16.30;99.90;;;;;;5093178;28;20481;-72
2022/09/17 11:25:05;;;;;;;5.40;1.45;;;16.60;99.90;;;;;;5091000;28;20043;-71
2022/09/17 11:27:37;;;;;;;4.95;1.20;;;16.70;99.90;;;;;;5066263;28;20358;-74
2022/09/17 11:30:22;;;;;;;3.72;1.33;;;16.60;99.50;;;;;;5083746;28;20024;-74
2022/09/17 11:33:05;;;;;;;7.03;2.00;;;16.60;99.50;;;;;;5078910;28;20020;-75
2022/09/17 11:35:39;;;;;;;4.82;0.88;;;16.80;98.80;;;;;;5070269;28;20154;-73
2022/09/17 11:38:24;;;;;;;7.30;1.25;;;17.00;98.40;;;;;;5080928;28;20024;-73
2022/09/17 11:41:00;;;;;;;6.20;1.27;;;17.00;98.20;;;;;;5074431;28;20111;-73
2022/09/17 11:43:30;;;;;;;4.75;1.05;;;16.80;97.90;;;;;;5069273;28;20041;-74
2022/09/17 11:46:08;;;;;;;4.18;1.30;;;16.70;97.30;;;;;;5086090;28;20045;-76
2022/09/17 11:48:45;;;;;;;3.88;1.00;;;16.70;96.90;;;;;;5068957;28;20040;-74
2022/09/17 11:51:37;;;;;;;3.60;1.25;;;16.60;97.60;;;;;;5070906;28;20032;-74
2022/09/17 11:54:17;;;;;;;4.28;1.08;;;16.40;97.80;;;;;;5072591;28;20041;-85
2022/09/17 11:56:47;;;;;;;4.13;1.20;;;16.70;98.10;;;;;;5073368;28;20055;-78
2022/09/17 11:59:29;;;;;;;3.17;1.02;;;17.00;96.70;;;;;;5056827;28;20055;-76
2022/09/17 12:02:22;;;;;;;5.65;1.20;;;17.10;96.30;;;;;;5064434;28;20024;-82
2022/09/17 12:04:59;;;;;;;5.28;1.25;;;17.00;95.70;;;;;;5064011;28;20257;-78
2022/09/17 12:07:47;;;;;;;3.58;1.00;;;17.00;95.70;;;;;;5077506;28;20085;-80
2022/09/17 12:10:34;;;;;;;4.72;1.13;;;16.80;95.90;;;;;;5068872;28;20028;-77
2022/09/17 12:13:15;;;;;;;3.55;0.80;;;16.50;95.60;;;;;;5076087;28;20028;-82
2022/09/17 12:15:45;;;;;;;4.53;1.10;;;16.30;96.30;;;;;;5072683;28;20056;-86
2022/09/17 12:18:23;;;;;;;6.55;1.85;;;16.10;97.60;;;;;;5066630;28;20031;-82
2022/09/17 12:20:53;;;;;;;4.38;1.38;;;15.80;98.20;;;;;;5073632;28;21082;-78
2022/09/17 12:23:30;;;;;;;3.70;1.20;;;15.40;99.90;;;;;;5075958;28;20110;-77
2022/09/17 12:26:14;;;;;;;3.58;1.00;;;14.80;99.90;;;;;;5079703;28;20054;-76
2022/09/17 12:29:05;;;;;;;2.80;0.80;;;14.30;99.90;;;;;;5073086;28;20099;-79
2022/09/17 12:32:01;;;;;;;9.57;1.90;;;13.80;99.90;;;;;;5087343;28;20035;-73
2022/09/17 12:34:26;;;;;;;3.25;0.98;;;13.50;99.90;;;;;;5078608;28;20028;-89
2022/09/17 12:37:21;;;;;;;4.75;1.15;;;13.20;99.90;;;;;;5080630;28;20042;-82
2022/09/17 12:40:01;;;;;;;2.17;0.93;;;13.10;99.90;;;;;;5099011;28;20452;-82
2022/09/17 12:42:46;;;;;;;4.20;1.10;;;13.10;99.90;;;;;;5065831;28;20032;-76
2022/09/17 12:45:21;;;;;;;4.40;1.10;;;13.50;99.90;;;;;;5092716;28;20115;-73
2022/09/17 12:48:00;;;;;;;3.78;1.20;;;13.80;99.90;;;;;;5083027;28;20020;-81
2022/09/17 12:50:32;;;;;;;4.70;1.30;;;13.90;99.90;;;;;;5087604;28;20473;-76
2022/09/17 12:53:07;;;;;;;2.97;0.88;;;13.80;99.90;;;;;;5077090;28;20096;-78
2022/09/17 12:55:54;;;;;;;2.78;1.00;;;13.80;99.90;;;;;;5093812;28;20086;-77
2022/09/17 12:58:34;;;;;;;1.98;0.80;;;13.40;99.90;;;;;;5091773;28;20060;-77
2022/09/17 13:01:06;;;;;;;;;;;13.10;99.90;;;;;;5091582;28;20027;-74
2022/09/17 13:03:40;;;;;;;3.67;1.30;;;13.00;99.90;;;;;;5093417;28;19930;-79
2022/09/17 13:06:25;;;;;;;3.88;1.08;;;12.90;99.90;;;;;;5085232;28;20036;-79
2022/09/17 13:09:03;;;;;;;3.65;0.63;;;12.90;99.90;;;;;;5092372;28;20028;-83
2022/09/17 13:12:10;;;;;;;3.55;0.80;;;12.80;99.90;;;;;;5072146;28;20427;-76
2022/09/17 13:15:18;;;;;;;1.95;0.82;;;12.60;99.90;;;;;;5083806;28;20056;-78
2022/09/17 13:18:05;;;;;;;2.47;0.90;;;12.40;99.90;;;;;;5094111;28;20024;-75
2022/09/17 13:20:36;;;;;;;2.90;0.73;;;12.20;99.90;;;;;;5083759;28;20042;-86
2022/09/17 13:23:03;;;;;;;1.95;0.80;;;12.10;99.90;;;;;;5088420;28;20036;-81
2022/09/17 13:25:29;;;;;;;1.98;0.80;;;12.10;99.90;;;;;;5090415;28;20056;-81
2022/09/17 13:28:09;;;;;;;1.85;0.73;;;12.10;99.90;;;;;;5092403;28;20035;-77
2022/09/17 13:30:54;;;;;;;3.40;1.00;;;12.30;99.90;;;;;;5090044;28;20036;-76
2022/09/17 13:33:51;;;;;;;1.33;0.73;;;12.40;99.90;;;;;;5087778;28;20127;-76